createdAt,value
2022-10-18T00:01:05.726Z,3.70
2022-10-18T00:03:34.433Z,3.80
2022-10-18T00:06:03.037Z,4.45
2022-10-18T00:08:31.316Z,4.03
2022-10-18T00:10:58.849Z,3.92
2022-10-18T00:13:26.490Z,4.25
2022-10-18T00:15:57.133Z,4.18
2022-10-18T00:18:25.043Z,3.80
2022-10-18T00:21:11.030Z,4.28
2022-10-18T00:23:38.932Z,4.03
2022-10-18T00:26:12.373Z,3.80
2022-10-18T00:28:41.164Z,3.92
2022-10-18T00:31:13.463Z,4.38
2022-10-18T00:33:42.330Z,3.95
2022-10-18T00:36:10.535Z,4.40
2022-10-18T00:38:38.438Z,4.40
2022-10-18T00:41:09.795Z,4.53
2022-10-18T00:43:57.592Z,4.10
2022-10-18T00:46:27.620Z,4.00
2022-10-18T00:48:57.617Z,4.25
2022-10-18T00:51:30.451Z,4.28
2022-10-18T00:53:58.214Z,4.88
2022-10-18T00:56:26.462Z,4.95
2022-10-18T00:58:54.641Z,5.30
2022-10-18T01:01:25.809Z,5.57
2022-10-18T01:03:57.536Z,5.45
2022-10-18T01:06:28.384Z,5.50
2022-10-18T01:09:15.423Z,6.15
2022-10-18T01:12:05.857Z,6.10
2022-10-18T01:15:05.719Z,6.10
2022-10-18T01:17:54.895Z,5.55
2022-10-18T01:20:44.340Z,5.50
2022-10-18T01:24:02.859Z,5.63
2022-10-18T01:26:48.384Z,5.30
2022-10-18T01:29:54.261Z,5.32
2022-10-18T01:32:47.698Z,5.30
2022-10-18T01:35:21.302Z,4.32
2022-10-18T01:37:51.992Z,4.43
2022-10-18T01:40:22.525Z,4.50
2022-10-18T01:42:51.259Z,4.32
2022-10-18T01:45:21.746Z,4.55
2022-10-18T01:47:51.039Z,4.53
2022-10-18T01:50:32.728Z,4.00
2022-10-18T01:53:01.863Z,4.28
2022-10-18T01:55:49.075Z,4.07
2022-10-18T01:58:22.369Z,4.05
2022-10-18T02:01:05.526Z,4.00
2022-10-18T02:03:37.276Z,3.67
2022-10-18T02:06:25.242Z,3.65
2022-10-18T02:09:16.609Z,3.63
2022-10-18T02:11:46.890Z,4.20
2022-10-18T02:14:16.648Z,4.85
2022-10-18T02:16:57.234Z,3.60
2022-10-18T02:19:39.033Z,3.70
2022-10-18T02:22:08.878Z,3.75
2022-10-18T02:24:40.108Z,3.33
2022-10-18T02:27:08.661Z,3.42
2022-10-18T02:29:37.169Z,3.38
2022-10-18T02:32:16.085Z,3.35
2022-10-18T02:34:49.455Z,3.90
2022-10-18T02:37:18.738Z,4.03
2022-10-18T02:39:49.391Z,3.80
2022-10-18T02:42:17.374Z,3.50
2022-10-18T02:44:45.064Z,4.30
2022-10-18T02:47:13.254Z,3.92
2022-10-18T02:49:41.000Z,4.25
2022-10-18T02:52:08.671Z,3.92
2022-10-18T02:54:36.425Z,4.13
2022-10-18T02:57:04.050Z,4.18
2022-10-18T02:59:31.854Z,3.30
2022-10-18T03:01:59.693Z,3.90
2022-10-18T03:06:55.949Z,3.90
2022-10-18T03:09:23.563Z,3.95
2022-10-18T03:11:51.448Z,3.90
2022-10-18T03:14:19.325Z,3.60
2022-10-18T03:16:47.076Z,4.15
2022-10-18T03:19:14.784Z,4.55
2022-10-18T03:21:42.567Z,4.80
2022-10-18T03:24:10.241Z,5.43
2022-10-18T03:26:37.893Z,4.72
2022-10-18T03:29:05.833Z,3.88
2022-10-18T03:31:33.964Z,4.72
2022-10-18T03:34:01.618Z,4.25
2022-10-18T03:36:29.236Z,3.70
2022-10-18T03:38:56.886Z,4.68
2022-10-18T03:41:24.698Z,4.03
2022-10-18T03:43:55.150Z,4.10
2022-10-18T03:46:22.936Z,3.60
2022-10-18T03:48:50.761Z,3.40
2022-10-18T03:51:18.510Z,4.05
2022-10-18T03:53:46.166Z,3.65
2022-10-18T03:56:13.858Z,3.42
2022-10-18T03:58:41.492Z,4.05
2022-10-18T04:01:11.031Z,4.03
2022-10-18T04:03:38.638Z,3.60
2022-10-18T04:06:07.932Z,4.00
2022-10-18T04:08:36.221Z,3.85
2022-10-18T04:11:12.258Z,3.70
2022-10-18T04:13:39.923Z,3.40
2022-10-18T04:16:07.574Z,3.70
2022-10-18T04:18:35.190Z,3.25
2022-10-18T04:21:02.971Z,3.47
2022-10-18T04:23:31.838Z,3.17
2022-10-18T04:26:02.695Z,3.35
2022-10-18T04:28:35.619Z,3.00
2022-10-18T04:31:03.338Z,3.08
2022-10-18T04:33:31.144Z,3.13
2022-10-18T04:35:58.835Z,3.08
2022-10-18T04:38:26.858Z,2.70
2022-10-18T04:40:54.555Z,3.63
2022-10-18T04:43:22.311Z,2.90
2022-10-18T04:45:51.256Z,3.15
2022-10-18T04:48:19.243Z,4.93
2022-10-18T04:50:51.209Z,6.97
2022-10-18T04:53:19.445Z,10.18
2022-10-18T04:55:51.265Z,10.00
2022-10-18T04:58:19.406Z,8.07
2022-10-18T05:00:47.877Z,5.70
2022-10-18T05:03:17.810Z,4.63
2022-10-18T05:06:02.856Z,4.65
2022-10-18T05:08:33.434Z,4.03
2022-10-18T05:11:01.354Z,4.00
2022-10-18T05:13:30.259Z,4.38
2022-10-18T05:16:00.403Z,4.82
2022-10-18T05:18:28.566Z,5.35
2022-10-18T05:20:56.588Z,4.22
2022-10-18T05:23:24.888Z,4.05
2022-10-18T05:25:52.683Z,5.57
2022-10-18T05:28:40.078Z,6.32
2022-10-18T05:31:11.098Z,7.95
2022-10-18T05:33:39.213Z,8.43
2022-10-18T05:36:07.321Z,7.13
2022-10-18T05:41:05.821Z,6.45
2022-10-18T05:43:33.440Z,5.75
2022-10-18T05:46:01.264Z,5.75
2022-10-18T05:48:28.963Z,5.70
2022-10-18T05:51:00.825Z,5.15
2022-10-18T05:53:36.784Z,5.30
2022-10-18T05:56:06.116Z,4.68
2022-10-18T05:58:35.130Z,4.22
2022-10-18T06:01:03.797Z,5.30
2022-10-18T06:03:31.680Z,5.70
2022-10-18T06:06:10.512Z,4.47
2022-10-18T06:08:39.372Z,4.80
2022-10-18T06:11:18.196Z,4.30
2022-10-18T06:13:49.089Z,4.63
2022-10-18T06:16:19.673Z,4.00
2022-10-18T06:18:53.289Z,5.07
2022-10-18T06:21:21.820Z,4.57
2022-10-18T06:23:51.062Z,4.65
2022-10-18T06:26:18.790Z,4.90
2022-10-18T06:28:46.436Z,5.20
2022-10-18T06:31:15.027Z,5.82
2022-10-18T06:33:42.657Z,7.55
2022-10-18T06:36:15.585Z,7.80
2022-10-18T06:38:43.581Z,7.22
2022-10-18T06:41:11.324Z,8.05
2022-10-18T06:43:38.963Z,7.05
2022-10-18T06:46:08.249Z,6.72
2022-10-18T06:48:36.726Z,6.57
2022-10-18T06:51:06.579Z,7.00
2022-10-18T06:53:43.804Z,5.95
2022-10-18T06:56:20.971Z,5.28
2022-10-18T06:58:48.769Z,4.60
2022-10-18T07:01:19.841Z,4.15
2022-10-18T07:03:49.070Z,4.32
2022-10-18T07:06:18.734Z,4.40
2022-10-18T07:08:48.462Z,4.55
2022-10-18T07:11:19.591Z,4.13
2022-10-18T07:13:47.545Z,3.42
2022-10-18T07:16:18.483Z,3.75
2022-10-18T07:18:52.450Z,4.40
2022-10-18T07:21:22.544Z,4.82
2022-10-18T07:23:51.191Z,5.28
2022-10-18T07:26:30.296Z,4.57
2022-10-18T07:29:06.773Z,4.70
2022-10-18T07:31:34.698Z,4.15
2022-10-18T07:34:06.001Z,4.68
2022-10-18T07:36:34.561Z,4.32
2022-10-18T07:39:03.167Z,4.78
2022-10-18T07:41:33.561Z,4.10
2022-10-18T07:44:02.366Z,4.07
2022-10-18T07:46:30.343Z,4.47
2022-10-18T07:48:59.754Z,4.05
2022-10-18T07:51:28.146Z,4.05
2022-10-18T07:53:55.940Z,4.25
2022-10-18T07:56:23.561Z,3.90
2022-10-18T07:58:54.003Z,3.90
2022-10-18T08:01:22.880Z,3.83
2022-10-18T08:03:51.071Z,3.60
2022-10-18T08:06:20.542Z,4.03
2022-10-18T08:08:48.654Z,3.85
2022-10-18T08:11:19.432Z,3.90
2022-10-18T08:13:47.656Z,3.50
2022-10-18T08:16:18.370Z,3.58
2022-10-18T08:18:46.101Z,4.30
2022-10-18T08:21:15.463Z,3.90
2022-10-18T08:23:44.134Z,4.25
2022-10-18T08:26:14.816Z,3.88
2022-10-18T08:28:46.167Z,3.40
2022-10-18T08:31:22.004Z,3.50
2022-10-18T08:33:49.584Z,4.22
2022-10-18T08:36:18.529Z,4.20
2022-10-18T08:38:46.559Z,3.83
2022-10-18T08:41:37.546Z,4.10
2022-10-18T08:44:11.557Z,4.18
2022-10-18T08:46:45.170Z,4.53
2022-10-18T08:49:29.242Z,3.92
2022-10-18T08:51:58.522Z,4.30
2022-10-18T08:54:44.475Z,4.20
2022-10-18T08:57:16.087Z,4.35
2022-10-18T08:59:44.380Z,4.90
2022-10-18T09:02:36.893Z,4.63
2022-10-18T09:05:28.851Z,4.22
2022-10-18T09:07:59.571Z,4.45
2022-10-18T09:10:46.153Z,3.67
2022-10-18T09:13:41.516Z,3.60
2022-10-18T09:16:17.789Z,4.47
2022-10-18T09:19:04.203Z,4.20
2022-10-18T09:21:50.114Z,4.80
2022-10-18T09:24:33.123Z,4.00
2022-10-18T09:27:18.719Z,4.13
2022-10-18T09:30:04.686Z,4.40
2022-10-18T09:33:04.366Z,4.22
2022-10-18T09:35:52.796Z,4.57
2022-10-18T09:41:11.066Z,4.30
2022-10-18T09:43:54.742Z,4.60
2022-10-18T09:46:27.923Z,4.88
2022-10-18T09:48:58.333Z,5.15
2022-10-18T09:51:31.254Z,5.47
2022-10-18T09:54:20.466Z,4.97
2022-10-18T09:59:37.149Z,5.35
2022-10-18T10:02:05.689Z,4.90
2022-10-18T10:04:33.842Z,5.40
2022-10-18T10:07:02.330Z,5.05
2022-10-18T10:09:56.245Z,5.53
2022-10-18T10:12:30.496Z,2.80
2022-10-18T10:15:22.779Z,3.05
2022-10-18T10:18:06.154Z,3.22
2022-10-18T10:20:44.242Z,5.78
2022-10-18T10:23:39.312Z,4.38
2022-10-18T10:26:20.665Z,5.22
2022-10-18T10:28:49.374Z,5.05
2022-10-18T10:31:34.318Z,5.78
2022-10-18T10:34:18.123Z,6.40
2022-10-18T10:36:53.388Z,5.78
2022-10-18T10:39:23.816Z,5.85
2022-10-18T10:42:00.630Z,5.82
2022-10-18T10:47:01.996Z,6.85
2022-10-18T10:49:40.616Z,7.22
2022-10-18T10:52:33.960Z,6.35
2022-10-18T10:55:23.636Z,6.95
2022-10-18T10:57:52.830Z,5.28
2022-10-18T11:00:39.704Z,6.05
2022-10-18T11:03:29.110Z,7.28
2022-10-18T11:06:01.212Z,6.35
2022-10-18T11:08:38.478Z,6.28
2022-10-18T11:11:22.909Z,6.50
2022-10-18T11:14:13.556Z,7.20
2022-10-18T11:17:25.313Z,8.10
2022-10-18T11:20:02.695Z,8.30
2022-10-18T11:22:36.515Z,7.78
2022-10-18T11:25:06.447Z,7.97
2022-10-18T11:27:43.545Z,9.32
2022-10-18T11:30:36.947Z,7.30
2022-10-18T11:33:50.009Z,7.00
2022-10-18T11:36:25.118Z,8.30
2022-10-18T11:38:57.079Z,7.30
2022-10-18T11:42:03.282Z,6.82
2022-10-18T11:44:42.457Z,6.72
2022-10-18T11:47:17.083Z,6.13
2022-10-18T11:50:07.559Z,5.55
2022-10-18T11:52:47.218Z,5.35
2022-10-18T11:55:30.364Z,6.78
2022-10-18T11:58:12.419Z,5.57
2022-10-18T12:00:49.767Z,5.70
2022-10-18T12:03:31.011Z,6.28
2022-10-18T12:06:04.604Z,5.45
2022-10-18T12:08:41.416Z,6.43
2022-10-18T12:11:18.097Z,5.70
2022-10-18T12:13:50.226Z,6.32
2022-10-18T12:16:38.970Z,5.85
2022-10-18T12:19:25.167Z,7.05
2022-10-18T12:21:58.177Z,7.72
2022-10-18T12:24:30.483Z,10.32
2022-10-18T12:27:02.547Z,11.35
2022-10-18T12:29:40.273Z,10.77
2022-10-18T12:32:18.564Z,8.77
2022-10-18T12:34:57.202Z,7.82
2022-10-18T12:37:37.698Z,7.45
2022-10-18T12:40:15.797Z,7.00
2022-10-18T12:42:48.984Z,6.07
2022-10-18T12:45:35.707Z,6.13
2022-10-18T12:48:07.718Z,5.25
2022-10-18T12:50:38.738Z,5.63
2022-10-18T12:53:12.597Z,5.65
2022-10-18T12:58:14.490Z,6.88
2022-10-18T13:00:42.193Z,6.35
2022-10-18T13:03:12.697Z,6.32
2022-10-18T13:05:53.876Z,6.38
2022-10-18T13:08:28.033Z,6.18
2022-10-18T13:11:01.728Z,7.18
2022-10-18T13:13:40.155Z,7.95
2022-10-18T13:16:27.745Z,8.48
2022-10-18T13:19:29.575Z,7.90
2022-10-18T13:22:09.583Z,8.10
2022-10-18T13:24:44.186Z,8.18
2022-10-18T13:27:35.809Z,8.70
2022-10-18T13:30:13.078Z,8.25
2022-10-18T13:32:59.327Z,8.65
2022-10-18T13:35:45.528Z,7.70
2022-10-18T13:38:31.308Z,7.63
2022-10-18T13:44:00.064Z,8.32
2022-10-18T13:46:33.770Z,11.48
2022-10-18T13:49:36.443Z,14.57
2022-10-18T13:52:25.452Z,14.23
2022-10-18T13:55:14.737Z,14.27
2022-10-18T13:57:45.504Z,13.30
2022-10-18T14:00:22.282Z,13.32
2022-10-18T14:03:02.592Z,11.35
2022-10-18T14:05:47.424Z,9.27
2022-10-18T14:08:24.754Z,9.25
2022-10-18T14:11:03.069Z,11.52
2022-10-18T14:13:54.858Z,12.68
2022-10-18T14:16:42.348Z,10.23
2022-10-18T14:19:30.450Z,8.65
2022-10-18T14:22:28.664Z,7.38
2022-10-18T14:24:59.064Z,7.80
2022-10-18T14:27:32.739Z,7.43
2022-10-18T14:30:23.089Z,7.95
2022-10-18T14:32:54.585Z,8.38
2022-10-18T14:35:33.625Z,8.68
2022-10-18T14:38:02.781Z,8.63
2022-10-18T14:40:39.687Z,7.57
2022-10-18T14:43:16.886Z,6.85
2022-10-18T14:45:45.144Z,6.30
2022-10-18T14:48:18.880Z,6.25
2022-10-18T14:50:49.489Z,6.38
2022-10-18T14:53:22.070Z,6.15
2022-10-18T14:55:56.525Z,6.18
2022-10-18T14:58:24.401Z,5.55
2022-10-18T15:00:52.498Z,5.72
2022-10-18T15:03:20.981Z,6.40
2022-10-18T15:06:05.971Z,5.43
2022-10-18T15:08:41.251Z,6.03
2022-10-18T15:11:14.095Z,5.35
2022-10-18T15:13:56.544Z,5.78
2022-10-18T15:16:28.665Z,5.65
2022-10-18T15:19:16.105Z,6.38
2022-10-18T15:22:31.601Z,6.90
2022-10-18T15:25:27.983Z,7.30
2022-10-18T15:28:00.305Z,7.00
2022-10-18T15:30:43.254Z,6.53
2022-10-18T15:33:23.565Z,6.70
2022-10-18T15:35:52.450Z,6.05
2022-10-18T15:38:36.847Z,5.53
2022-10-18T15:41:56.563Z,6.03
2022-10-18T15:44:31.695Z,5.10
2022-10-18T15:47:12.284Z,6.07
2022-10-18T15:49:46.312Z,5.85
2022-10-18T15:52:38.273Z,6.07
2022-10-18T15:55:45.406Z,6.50
2022-10-18T15:58:18.007Z,7.80
2022-10-18T16:00:47.729Z,8.20
2022-10-18T16:03:17.701Z,15.95
2022-10-18T16:05:45.836Z,21.02
2022-10-18T16:08:30.562Z,20.70
2022-10-18T16:10:59.547Z,14.00
2022-10-18T16:13:27.483Z,11.93
2022-10-18T16:15:56.172Z,10.10
2022-10-18T16:18:25.069Z,9.20
2022-10-18T16:20:53.283Z,8.32
2022-10-18T16:23:24.301Z,7.10
2022-10-18T16:25:52.801Z,7.45
2022-10-18T16:28:23.459Z,6.95
2022-10-18T16:31:04.238Z,8.43
2022-10-18T16:33:31.888Z,9.63
2022-10-18T16:35:59.835Z,7.90
2022-10-18T16:38:36.285Z,8.60
2022-10-18T16:41:07.266Z,6.88
2022-10-18T16:43:35.587Z,6.35
2022-10-18T16:46:04.777Z,6.38
2022-10-18T16:48:33.741Z,6.97
2022-10-18T16:51:02.040Z,6.85
2022-10-18T16:53:29.848Z,8.75
2022-10-18T16:56:00.007Z,10.10
2022-10-18T16:58:29.310Z,9.68
2022-10-18T17:00:58.649Z,11.70
2022-10-18T17:03:26.831Z,15.00
2022-10-18T17:05:54.644Z,13.30
2022-10-18T17:08:29.328Z,11.60
2022-10-18T17:10:59.676Z,11.85
2022-10-18T17:13:27.317Z,10.82
2022-10-18T17:15:55.061Z,11.25
2022-10-18T17:18:30.700Z,12.35
2022-10-18T17:21:00.951Z,13.70
2022-10-18T17:23:29.281Z,11.45
2022-10-18T17:26:08.532Z,10.82
2022-10-18T17:28:45.003Z,10.15
2022-10-18T17:31:16.034Z,8.68
2022-10-18T17:33:44.754Z,8.77
2022-10-18T17:36:13.245Z,9.95
2022-10-18T17:38:41.501Z,9.05
2022-10-18T17:41:11.758Z,9.25
2022-10-18T17:46:08.443Z,9.77
2022-10-18T17:48:37.947Z,8.75
2022-10-18T17:51:10.506Z,9.23
2022-10-18T17:53:38.634Z,10.00
2022-10-18T17:56:07.968Z,11.73
2022-10-18T17:58:35.949Z,11.88
2022-10-18T18:01:18.318Z,11.82
2022-10-18T18:03:47.887Z,12.65
2022-10-18T18:06:31.055Z,10.45
2022-10-18T18:09:01.086Z,10.18
2022-10-18T18:11:29.112Z,10.82
2022-10-18T18:13:57.575Z,10.68
2022-10-18T18:16:28.291Z,10.02
2022-10-18T18:18:58.715Z,10.40
2022-10-18T18:21:27.133Z,9.05
2022-10-18T18:23:55.396Z,9.68
2022-10-18T18:26:23.887Z,8.80
2022-10-18T18:28:52.022Z,8.77
2022-10-18T18:31:24.134Z,8.35
2022-10-18T18:33:54.366Z,9.07
2022-10-18T18:36:23.514Z,8.52
2022-10-18T18:38:57.019Z,9.25
2022-10-18T18:41:26.600Z,10.73
2022-10-18T18:44:00.725Z,10.15
2022-10-18T18:46:30.366Z,11.30
2022-10-18T18:48:58.735Z,10.85
2022-10-18T18:51:27.257Z,10.95
2022-10-18T18:53:55.338Z,11.93
2022-10-18T18:56:25.126Z,11.45
2022-10-18T18:58:54.074Z,12.50
2022-10-18T19:01:24.205Z,13.95
2022-10-18T19:03:54.913Z,14.50
2022-10-18T19:06:26.883Z,13.60
2022-10-18T19:09:01.253Z,12.27
2022-10-18T19:11:32.856Z,11.32
2022-10-18T19:14:03.005Z,12.95
2022-10-18T19:16:37.615Z,12.00
2022-10-18T19:19:08.243Z,10.93
2022-10-18T19:21:42.129Z,10.27
2022-10-18T19:24:09.718Z,10.43
2022-10-18T19:26:45.420Z,11.80
2022-10-18T19:29:20.388Z,12.15
2022-10-18T19:31:49.766Z,14.05
2022-10-18T19:34:19.395Z,23.38
2022-10-18T19:36:48.741Z,22.33
2022-10-18T19:39:20.990Z,22.25
2022-10-18T19:41:50.782Z,19.45
2022-10-18T19:44:20.225Z,16.52
2022-10-18T19:46:48.531Z,13.93
2022-10-18T19:49:17.039Z,12.63
2022-10-18T19:51:45.270Z,10.93
2022-10-18T19:54:14.273Z,11.70
2022-10-18T19:56:43.081Z,11.07
2022-10-18T19:59:12.205Z,10.93
2022-10-18T20:01:39.951Z,11.00
2022-10-18T20:04:08.618Z,10.27
2022-10-18T20:06:37.777Z,9.90
2022-10-18T20:09:07.524Z,9.73
2022-10-18T20:11:36.368Z,10.10
2022-10-18T20:14:05.943Z,9.93
2022-10-18T20:16:33.958Z,10.25
2022-10-18T20:19:07.563Z,10.35
2022-10-18T20:21:35.988Z,12.23
2022-10-18T20:24:05.975Z,12.05
2022-10-18T20:26:36.059Z,11.48
2022-10-18T20:29:04.622Z,11.20
2022-10-18T20:31:35.794Z,9.63
2022-10-18T20:34:13.105Z,9.27
2022-10-18T20:36:43.072Z,8.85
2022-10-18T20:39:10.630Z,8.80
2022-10-18T20:41:41.270Z,8.20
2022-10-18T20:44:13.955Z,8.73
2022-10-18T20:46:42.043Z,8.38
2022-10-18T20:49:13.876Z,8.38
2022-10-18T20:51:42.168Z,8.52
2022-10-18T20:54:11.151Z,7.03
2022-10-18T20:56:39.487Z,7.13
2022-10-18T20:59:10.115Z,7.70
2022-10-18T21:01:39.264Z,9.02
2022-10-18T21:04:09.603Z,10.23
2022-10-18T21:06:41.235Z,12.98
2022-10-18T21:09:16.269Z,13.27
2022-10-18T21:11:46.532Z,13.20
2022-10-18T21:14:18.825Z,12.57
2022-10-18T21:16:47.703Z,10.65
2022-10-18T21:19:18.863Z,10.45
2022-10-18T21:21:52.380Z,9.55
2022-10-18T21:24:26.082Z,9.23
2022-10-18T21:26:55.591Z,8.25
2022-10-18T21:29:25.176Z,8.52
2022-10-18T21:31:55.802Z,8.80
2022-10-18T21:34:23.546Z,8.40
2022-10-18T21:36:51.162Z,8.02
2022-10-18T21:39:21.919Z,8.57
2022-10-18T21:41:51.323Z,8.35
2022-10-18T21:44:19.071Z,7.70
2022-10-18T21:46:47.034Z,8.80
2022-10-18T21:49:16.203Z,8.23
2022-10-18T21:51:44.982Z,8.50
2022-10-18T21:54:15.694Z,8.38
2022-10-18T21:56:44.053Z,8.10
2022-10-18T21:59:15.008Z,8.38
2022-10-18T22:01:44.965Z,7.63
2022-10-18T22:04:22.721Z,8.82
2022-10-18T22:06:51.955Z,8.68
2022-10-18T22:09:21.481Z,8.40
2022-10-18T22:11:52.631Z,8.18
2022-10-18T22:14:20.922Z,8.13
2022-10-18T22:16:48.866Z,8.55
2022-10-18T22:19:17.030Z,8.27
2022-10-18T22:21:45.028Z,8.20
2022-10-18T22:24:12.692Z,7.97
2022-10-18T22:26:42.984Z,8.20
2022-10-18T22:29:16.170Z,8.77
2022-10-18T22:31:47.873Z,8.23
2022-10-18T22:34:18.570Z,8.07
2022-10-18T22:36:46.446Z,8.13
2022-10-18T22:39:15.416Z,8.02
2022-10-18T22:41:44.591Z,7.88
2022-10-18T22:44:13.699Z,7.88
2022-10-18T22:46:42.452Z,7.28
2022-10-18T22:49:11.302Z,7.82
2022-10-18T22:51:39.367Z,7.63
2022-10-18T22:54:08.002Z,7.75
2022-10-18T22:56:35.632Z,7.70
2022-10-18T22:59:03.368Z,7.90
2022-10-18T23:01:30.983Z,8.10
2022-10-18T23:04:00.353Z,7.55
2022-10-18T23:06:36.201Z,8.15
2022-10-18T23:09:09.236Z,8.10
2022-10-18T23:11:38.799Z,8.18
2022-10-18T23:14:07.081Z,7.72
2022-10-18T23:16:35.164Z,7.00
2022-10-18T23:19:03.735Z,7.55
2022-10-18T23:21:31.582Z,7.82
2022-10-18T23:23:59.378Z,9.05
2022-10-18T23:26:28.182Z,9.55
2022-10-18T23:28:56.434Z,8.55
2022-10-18T23:31:29.917Z,8.60
2022-10-18T23:34:01.545Z,9.43
2022-10-18T23:36:30.585Z,9.95
2022-10-18T23:38:58.820Z,9.38
2022-10-18T23:41:27.007Z,9.20
2022-10-18T23:43:55.350Z,8.65
2022-10-18T23:46:23.101Z,8.98
2022-10-18T23:48:51.186Z,8.48
2022-10-18T23:51:18.743Z,8.68
2022-10-18T23:53:46.750Z,8.45
2022-10-18T23:56:16.254Z,8.80
2022-10-18T23:58:45.393Z,8.25
